Time;durP1;ratioP1;P1;durP2;ratioP2;P2;SDS_P1;SDS_P2;PMS_P1;PMS_P2;Temp;Humidity;BMP_temperature;BMP_pressure;BME280_temperature;BME280_humidity;BME280_pressure;Samples;Min_cycle;Max_cycle;Signal;HPM_P1;HPM_P2
2022/04/28 00:01:40;;;;;;;13.68;5.00;;;;;;;10.25;54.10;102787.69;5093792;28;20024;-62
2022/04/28 00:04:05;;;;;;;10.48;4.18;;;;;;;10.24;54.56;102788.53;5093429;28;20032;-62
2022/04/28 00:06:31;;;;;;;9.80;4.20;;;;;;;10.27;54.10;102785.09;5093641;28;20465;-62
2022/04/28 00:08:56;;;;;;;15.45;4.63;;;;;;;10.35;53.46;102796.88;5093584;28;20389;-62
2022/04/28 00:11:21;;;;;;;10.02;4.20;;;;;;;10.26;53.98;102788.56;5093568;28;20024;-62
2022/04/28 00:13:47;;;;;;;10.10;4.03;;;;;;;10.26;54.34;102796.50;5093536;28;20022;-62
2022/04/28 00:16:12;;;;;;;11.35;4.18;;;;;;;10.30;53.84;102794.91;5093524;28;20443;-62
2022/04/28 00:18:38;;;;;;;9.73;4.85;;;;;;;10.34;53.95;102797.75;5093473;28;20020;-62
2022/04/28 00:21:03;;;;;;;7.13;4.05;;;;;;;10.25;54.04;102800.00;5093245;28;20067;-62
2022/04/28 00:23:28;;;;;;;9.35;4.28;;;;;;;10.25;53.95;102802.63;5093288;28;20024;-62
2022/04/28 00:25:53;;;;;;;11.88;4.15;;;;;;;10.17;53.90;102796.06;5093290;28;20098;-62
2022/04/28 00:28:20;;;;;;;13.32;4.50;;;;;;;10.20;54.01;102801.50;5093238;28;20047;-62
2022/04/28 00:30:46;;;;;;;11.73;4.45;;;;;;;10.15;54.15;102803.94;5093288;28;20036;-62
2022/04/28 00:33:11;;;;;;;8.68;4.22;;;;;;;10.04;54.44;102800.81;5093188;28;20127;-62
2022/04/28 00:35:38;;;;;;;17.40;4.50;;;;;;;10.04;54.69;102794.63;5093410;28;20035;-62
2022/04/28 00:38:04;;;;;;;11.55;4.50;;;;;;;9.96;54.84;102796.03;5092268;28;20431;-62
2022/04/28 00:40:29;;;;;;;12.38;4.80;;;;;;;9.86;55.32;102792.06;5093048;28;20477;-62
2022/04/28 00:43:18;;;;;;;9.63;4.45;;;;;;;9.76;55.53;102790.78;5093097;28;20028;-62
2022/04/28 00:45:40;;;;;;;7.00;4.13;;;;;;;9.71;55.45;102788.72;5092882;28;20035;-62
2022/04/28 00:50:49;;;;;;;8.43;4.68;;;;;;;9.61;55.93;102790.06;5093419;28;20043;-62
2022/04/28 00:53:15;;;;;;;13.75;4.57;;;;;;;9.49;56.71;102794.75;5075623;28;20397;-62
2022/04/28 00:55:41;;;;;;;11.25;4.82;;;;;;;9.41;56.63;102791.75;5073026;28;20145;-62
2022/04/28 00:58:10;;;;;;;12.55;4.60;;;;;;;9.40;56.75;102789.97;5072711;28;20476;-62
2022/04/28 01:00:39;;;;;;;13.38;4.53;;;;;;;9.45;56.53;102790.19;5072666;28;20032;-62
2022/04/28 01:03:05;;;;;;;12.00;4.90;;;;;;;9.36;57.00;102784.47;5072672;28;20075;-62
2022/04/28 01:05:32;;;;;;;9.57;4.60;;;;;;;9.42;57.07;102787.38;5072682;28;20385;-62
2022/04/28 01:07:57;;;;;;;12.88;4.90;;;;;;;9.36;57.18;102790.66;5072743;28;20029;-62
2022/04/28 01:10:23;;;;;;;10.48;5.05;;;;;;;9.31;56.84;102788.63;5072792;28;20032;-62
2022/04/28 01:12:49;;;;;;;12.95;4.88;;;;;;;9.33;56.79;102793.13;5072611;28;20024;-62
2022/04/28 01:15:15;;;;;;;13.35;4.63;;;;;;;9.43;56.71;102792.75;5072777;28;20025;-62
2022/04/28 01:17:40;;;;;;;11.23;4.70;;;;;;;9.40;56.38;102791.72;5072760;28;20420;-62
2022/04/28 01:20:06;;;;;;;11.13;4.45;;;;;;;9.39;56.72;102789.91;5072540;28;20025;-62
2022/04/28 01:22:32;;;;;;;13.00;4.90;;;;;;;9.37;56.73;102794.19;5072617;28;20148;-62
2022/04/28 01:25:05;;;;;;;12.52;4.75;;;;;;;9.32;56.91;102799.25;5072729;28;20021;-62
2022/04/28 01:27:30;;;;;;;10.40;4.82;;;;;;;9.36;57.03;102795.94;5072466;28;20478;-62
2022/04/28 01:29:56;;;;;;;9.40;4.90;;;;;;;9.21;57.45;102796.13;5072535;28;20158;-61
2022/04/28 01:32:21;;;;;;;11.98;4.72;;;;;;;9.22;57.06;102802.31;5072405;28;20389;-62
2022/04/28 01:34:46;;;;;;;11.80;4.93;;;;;;;9.21;56.98;102790.84;5072720;28;20056;-62
2022/04/28 01:37:12;;;;;;;9.85;4.90;;;;;;;9.11;57.44;102795.59;5072572;28;20108;-62
2022/04/28 01:39:37;;;;;;;11.77;4.70;;;;;;;9.09;57.58;102794.63;5072649;28;20021;-62
2022/04/28 01:42:02;;;;;;;12.70;5.28;;;;;;;9.02;57.98;102804.88;5072255;28;20064;-62
2022/04/28 01:44:28;;;;;;;12.57;5.03;;;;;;;9.01;57.56;102802.16;5072355;28;20032;-62
2022/04/28 01:46:53;;;;;;;12.15;4.70;;;;;;;9.00;57.66;102803.00;5072249;28;20138;-63
2022/04/28 01:49:19;;;;;;;8.55;4.65;;;;;;;8.98;57.68;102804.66;5074060;28;20048;-62
2022/04/28 01:57:12;;;;;;;14.25;5.20;;;;;;;8.96;57.87;102799.31;5096063;28;20036;-62
2022/04/28 01:59:37;;;;;;;12.60;5.07;;;;;;;8.87;58.04;102796.22;5095903;28;20388;-62
2022/04/28 02:02:02;;;;;;;12.75;5.60;;;;;;;8.75;58.23;102793.88;5095905;28;20453;-62
2022/04/28 02:04:28;;;;;;;8.52;4.68;;;;;;;8.75;58.13;102796.53;5095927;28;20028;-62
2022/04/28 02:06:53;;;;;;;12.15;4.85;;;;;;;8.72;57.78;102803.38;5095799;28;20103;-62
2022/04/28 02:09:18;;;;;;;11.40;5.22;;;;;;;8.61;59.08;102801.91;5095844;28;20026;-62
2022/04/28 02:11:44;;;;;;;13.23;5.10;;;;;;;8.63;59.06;102806.44;5095879;28;20028;-62
2022/04/28 02:14:09;;;;;;;11.35;5.22;;;;;;;8.58;59.21;102807.97;5095685;28;20103;-62
2022/04/28 02:16:34;;;;;;;12.30;4.95;;;;;;;8.52;59.21;102803.28;5095577;28;20024;-62
2022/04/28 02:19:00;;;;;;;11.02;5.00;;;;;;;8.53;59.24;102807.72;5095788;28;20111;-62
2022/04/28 02:21:25;;;;;;;10.90;5.18;;;;;;;8.51;59.78;102805.81;5095447;28;20126;-62
2022/04/28 02:23:50;;;;;;;11.02;5.13;;;;;;;8.56;58.30;102808.69;5095643;28;20030;-61
2022/04/28 02:26:16;;;;;;;11.63;4.82;;;;;;;8.65;58.59;102810.09;5095670;28;20031;-62
2022/04/28 02:28:41;;;;;;;8.52;4.72;;;;;;;8.65;59.33;102806.50;5095396;28;20024;-62
2022/04/28 02:31:06;;;;;;;11.43;4.93;;;;;;;8.57;59.66;102808.78;5095479;28;20040;-62
2022/04/28 02:33:32;;;;;;;13.80;4.80;;;;;;;8.59;59.02;102814.13;5095580;28;20024;-62
2022/04/28 02:35:57;;;;;;;10.90;5.38;;;;;;;8.62;58.63;102809.03;5095468;28;20032;-63
2022/04/28 02:38:23;;;;;;;10.35;5.28;;;;;;;8.69;58.64;102808.47;5095321;28;20017;-62
2022/04/28 02:40:48;;;;;;;13.95;5.20;;;;;;;8.69;58.90;102806.78;5095202;28;20028;-62
2022/04/28 02:43:13;;;;;;;12.18;5.40;;;;;;;8.62;58.90;102802.00;5095246;28;20381;-62
2022/04/28 02:45:39;;;;;;;9.35;5.00;;;;;;;8.48;59.36;102795.16;5076969;28;20373;-62
2022/04/28 02:48:04;;;;;;;10.38;5.15;;;;;;;8.49;58.44;102804.88;5094967;28;20465;-62
2022/04/28 02:50:30;;;;;;;11.15;5.78;;;;;;;8.50;58.80;102798.75;5095046;28;20035;-62
2022/04/28 02:52:55;;;;;;;13.75;5.57;;;;;;;8.51;59.24;102800.56;5094773;28;20127;-62
2022/04/28 02:55:21;;;;;;;9.88;5.50;;;;;;;8.48;59.11;102798.69;5094958;28;20020;-62
2022/04/28 02:57:46;;;;;;;12.30;5.30;;;;;;;8.48;59.03;102789.88;5095090;28;20106;-62
2022/04/28 03:00:12;;;;;;;9.13;5.30;;;;;;;8.49;59.28;102805.75;5093936;28;20491;-62
2022/04/28 03:02:37;;;;;;;12.77;5.40;;;;;;;8.50;59.17;102804.94;5094747;28;20020;-62
2022/04/28 03:05:04;;;;;;;9.40;5.13;;;;;;;8.43;59.50;102792.25;5094789;28;20052;-62
2022/04/28 03:12:58;;;;;;;13.80;5.55;;;;;;;8.31;60.01;102801.22;5094673;28;20030;-63
2022/04/28 03:15:25;;;;;;;12.38;5.57;;;;;;;8.24;59.85;102794.75;5094554;28;20111;-62
2022/04/28 03:17:50;;;;;;;12.82;5.50;;;;;;;8.15;59.99;102791.66;5094520;28;20024;-62
2022/04/28 03:20:16;;;;;;;11.93;5.55;;;;;;;8.13;59.89;102806.47;5094666;28;20446;-61
2022/04/28 03:22:42;;;;;;;14.18;5.65;;;;;;;8.10;60.82;102803.69;5094710;28;20362;-62
2022/04/28 03:25:08;;;;;;;11.43;5.22;;;;;;;8.16;59.67;102806.63;5094417;28;20440;-62
2022/04/28 03:27:33;;;;;;;10.57;5.25;;;;;;;8.14;60.41;102800.41;5094332;28;20048;-62
2022/04/28 03:29:59;;;;;;;12.48;5.60;;;;;;;8.16;60.12;102804.91;5094220;28;20024;-62
2022/04/28 03:32:24;;;;;;;10.05;5.53;;;;;;;8.15;60.37;102813.63;5094223;28;20111;-62
2022/04/28 03:34:49;;;;;;;12.32;5.63;;;;;;;8.14;60.97;102810.94;5094210;28;20512;-62
2022/04/28 03:37:15;;;;;;;12.68;6.53;;;;;;;8.02;60.55;102809.44;5094278;28;20107;-62
2022/04/28 03:39:40;;;;;;;13.57;5.95;;;;;;;7.89;61.36;102801.72;5094095;28;20431;-62
2022/04/28 03:42:06;;;;;;;10.77;5.72;;;;;;;7.87;60.95;102797.19;5093850;28;20035;-62
2022/04/28 03:44:32;;;;;;;10.25;5.40;;;;;;;7.79;61.65;102804.66;5075725;28;20024;-62
2022/04/28 03:46:57;;;;;;;13.57;5.93;;;;;;;7.74;61.81;102799.16;5093896;28;20107;-62
2022/04/28 03:49:23;;;;;;;13.02;5.38;;;;;;;7.81;61.22;102807.41;5093929;28;20024;-62
2022/04/28 03:51:48;;;;;;;12.93;5.82;;;;;;;7.80;61.45;102803.88;5093794;28;20119;-62
2022/04/28 03:54:14;;;;;;;13.43;5.82;;;;;;;7.84;61.46;102807.59;5093800;28;20085;-62
2022/04/28 03:56:39;;;;;;;14.00;6.20;;;;;;;7.75;61.56;102800.06;5093763;28;20020;-62
2022/04/28 03:59:04;;;;;;;12.38;5.82;;;;;;;7.74;61.42;102803.53;5093785;28;20027;-62
2022/04/28 04:01:30;;;;;;;11.40;6.10;;;;;;;7.74;61.44;102814.97;5093447;28;20030;-62
2022/04/28 04:03:55;;;;;;;14.02;6.07;;;;;;;7.74;61.85;102812.31;5093722;28;20016;-62
2022/04/28 04:06:21;;;;;;;18.33;6.88;;;;;;;7.68;62.66;102819.00;5093713;28;20103;-62
2022/04/28 04:08:46;;;;;;;12.77;6.13;;;;;;;7.67;61.81;102817.19;5093604;28;20107;-62
2022/04/28 04:11:12;;;;;;;11.15;5.90;;;;;;;7.76;61.04;102815.97;5093400;28;20024;-62
2022/04/28 04:13:38;;;;;;;14.73;6.40;;;;;;;7.84;60.85;102818.09;5092952;28;20199;-62
2022/04/28 04:16:04;;;;;;;13.52;5.88;;;;;;;7.85;61.45;102826.06;5092796;28;20127;-62
2022/04/28 04:18:30;;;;;;;9.73;5.55;;;;;;;7.86;60.58;102824.34;5093195;28;20384;-62
2022/04/28 04:20:56;;;;;;;15.13;6.70;;;;;;;7.93;60.48;102827.41;5092660;28;20028;-62
2022/04/28 04:23:21;;;;;;;12.80;5.95;;;;;;;7.92;60.34;102817.69;5092777;28;20100;-63
2022/04/28 04:25:47;;;;;;;13.40;6.30;;;;;;;7.98;60.42;102825.91;5092684;28;20552;-62
2022/04/28 04:28:12;;;;;;;11.45;5.85;;;;;;;8.00;60.52;102824.25;5092714;28;20035;-62
2022/04/28 04:33:21;;;;;;;13.63;5.90;;;;;;;7.98;60.65;102818.00;5092918;28;20031;-62
2022/04/28 04:35:47;;;;;;;13.18;6.38;;;;;;;7.98;60.24;102828.53;5092408;28;20028;-62
2022/04/28 04:38:12;;;;;;;14.57;6.38;;;;;;;7.99;60.20;102824.16;5092477;28;20028;-62
2022/04/28 04:40:37;;;;;;;12.77;6.20;;;;;;;7.91;60.66;102821.13;5092405;28;20453;-62
2022/04/28 04:43:04;;;;;;;15.75;6.32;;;;;;;7.96;60.46;102830.16;5092470;28;20108;-62
2022/04/28 04:45:30;;;;;;;12.13;6.45;;;;;;;7.97;60.47;102828.47;5092433;28;20024;-62
2022/04/28 04:47:55;;;;;;;13.52;6.30;;;;;;;7.93;61.22;102829.13;5092529;28;20031;-62
2022/04/28 04:50:20;;;;;;;13.85;6.65;;;;;;;7.92;60.42;102833.50;5092625;28;20111;-62
2022/04/28 04:52:46;;;;;;;12.82;6.40;;;;;;;7.91;60.81;102842.19;5092253;28;20101;-62
2022/04/28 04:55:11;;;;;;;14.63;6.50;;;;;;;7.95;60.73;102844.16;5092518;28;20048;-62
2022/04/28 04:57:37;;;;;;;21.63;7.28;;;;;;;7.94;61.45;102849.34;5092337;28;20140;-62
2022/04/28 05:00:04;;;;;;;12.77;6.70;;;;;;;7.88;61.47;102851.63;5092470;28;20374;-62
2022/04/28 05:02:29;;;;;;;12.48;6.70;;;;;;;7.86;62.04;102848.94;5092131;28;20028;-62
2022/04/28 05:04:55;;;;;;;16.33;6.18;;;;;;;7.90;61.51;102858.81;5092379;28;20039;-62
2022/04/28 05:07:20;;;;;;;15.40;6.80;;;;;;;7.92;61.38;102858.88;5092294;28;20031;-62
2022/04/28 05:09:45;;;;;;;14.45;7.03;;;;;;;7.93;62.55;102858.09;5074081;28;20420;-62
2022/04/28 05:12:11;;;;;;;14.25;6.80;;;;;;;8.07;62.55;102866.72;5092126;28;20384;-62
2022/04/28 05:14:36;;;;;;;15.75;7.05;;;;;;;8.26;61.47;102864.22;5092273;28;20028;-62
2022/04/28 05:17:02;;;;;;;15.25;6.63;;;;;;;8.40;61.23;102859.72;5092144;28;20448;-62
2022/04/28 05:19:27;;;;;;;13.50;6.97;;;;;;;8.64;60.42;102871.50;5092441;28;20024;-62
2022/04/28 05:21:55;;;;;;;13.02;6.70;;;;;;;8.74;60.25;102870.25;5092463;28;20441;-62
2022/04/28 05:24:20;;;;;;;14.93;6.70;;;;;;;8.82;60.60;102876.78;5094461;28;20407;-62
2022/04/28 05:26:45;;;;;;;19.40;7.47;;;;;;;8.93;60.19;102883.53;5096055;28;20024;-62
2022/04/28 05:29:11;;;;;;;16.73;6.68;;;;;;;8.98;59.90;102862.66;5095669;28;20024;-62
2022/04/28 05:31:36;;;;;;;12.10;6.75;;;;;;;9.17;59.57;102878.56;5095878;28;20024;-62
2022/04/28 05:34:02;;;;;;;15.07;7.35;;;;;;;9.35;58.82;102880.28;5095681;28;20031;-62
2022/04/28 05:36:28;;;;;;;17.77;7.20;;;;;;;9.35;59.21;102875.91;5095630;28;20035;-62
2022/04/28 05:38:57;;;;;;;16.83;7.15;;;;;;;9.46;59.57;102881.69;5095897;28;20356;-62
2022/04/28 05:41:24;;;;;;;14.38;7.63;;;;;;;9.48;59.14;102887.97;5095508;28;20107;-62
2022/04/28 05:46:33;;;;;;;11.73;7.07;;;;;;;9.71;59.43;102895.22;5095254;28;20035;-62
2022/04/28 05:48:59;;;;;;;17.90;7.88;;;;;;;9.75;59.39;102893.63;5095623;28;20397;-62
2022/04/28 05:51:24;;;;;;;20.05;8.50;;;;;;;9.78;59.08;102888.50;5095422;28;20028;-62
2022/04/28 05:53:49;;;;;;;16.25;8.13;;;;;;;9.88;58.58;102896.00;5095510;28;20133;-62
2022/04/28 05:56:15;;;;;;;15.38;8.50;;;;;;;10.03;58.70;102901.13;5095287;28;20032;-62
2022/04/28 05:58:40;;;;;;;17.88;8.63;;;;;;;10.06;59.30;102902.97;5095355;28;20035;-62
2022/04/28 06:01:06;;;;;;;17.38;7.80;;;;;;;10.19;58.62;102893.06;5095183;28;20523;-62
2022/04/28 06:03:32;;;;;;;17.52;8.45;;;;;;;10.32;58.85;102899.84;5095564;28;20096;-62
2022/04/28 06:05:57;;;;;;;14.88;8.30;;;;;;;10.36;58.34;102906.13;5095210;28;20031;-62
2022/04/28 06:08:23;;;;;;;19.35;8.43;;;;;;;10.39;58.66;102901.00;5095262;28;20024;-62
2022/04/28 06:10:48;;;;;;;16.85;8.57;;;;;;;10.60;57.72;102922.19;5095108;28;20111;-62
2022/04/28 06:13:13;;;;;;;17.00;8.20;;;;;;;10.68;56.87;102920.78;5095051;28;20063;-62
2022/04/28 06:15:39;;;;;;;17.75;8.38;;;;;;;10.78;57.91;102922.97;5095214;28;20028;-62
2022/04/28 06:18:04;;;;;;;19.80;8.60;;;;;;;10.87;57.39;102918.09;5094802;28;20447;-62
2022/04/28 06:20:29;;;;;;;16.60;8.07;;;;;;;10.98;56.37;102922.09;5095103;28;20038;-62
2022/04/28 06:22:55;;;;;;;17.65;7.95;;;;;;;11.17;56.84;102929.06;5094997;28;20072;-62
2022/04/28 06:25:23;;;;;;;16.48;8.15;;;;;;;11.37;56.48;102934.28;5094899;28;20020;-62
2022/04/28 06:27:49;;;;;;;14.90;8.18;;;;;;;11.52;56.31;102929.63;5094739;28;20027;-62
2022/04/28 06:30:14;;;;;;;19.35;8.98;;;;;;;11.52;55.01;102933.19;5095046;28;20020;-62
2022/04/28 06:32:40;;;;;;;14.23;7.95;;;;;;;11.57;55.90;102936.00;5094647;28;20442;-62
2022/04/28 06:35:07;;;;;;;20.70;8.25;;;;;;;11.79;55.12;102935.09;5094874;28;20102;-62
2022/04/28 06:37:32;;;;;;;15.25;8.18;;;;;;;12.03;54.35;102935.16;5094753;28;20101;-62
2022/04/28 06:39:58;;;;;;;15.70;8.00;;;;;;;12.11;53.36;102938.13;5094381;28;20532;-62
2022/04/28 06:42:23;;;;;;;19.33;8.80;;;;;;;12.27;53.25;102927.25;5094723;28;20031;-61
2022/04/28 06:44:48;;;;;;;16.05;8.32;;;;;;;12.50;52.46;102936.03;5094712;28;20406;-62
2022/04/28 06:47:14;;;;;;;15.68;8.10;;;;;;;12.62;51.33;102936.47;5094456;28;20523;-62
2022/04/28 06:49:39;;;;;;;17.30;8.32;;;;;;;12.74;50.99;102943.97;5094383;28;20027;-62
2022/04/28 06:52:05;;;;;;;16.23;8.20;;;;;;;12.90;51.02;102942.78;5097483;28;20051;-62
2022/04/28 06:54:31;;;;;;;16.23;7.97;;;;;;;12.98;50.10;102938.66;5095580;28;20051;-62
2022/04/28 06:56:58;;;;;;;16.77;7.30;;;;;;;13.01;49.70;102938.72;5094685;28;20035;-62
2022/04/28 06:59:23;;;;;;;17.83;7.60;;;;;;;13.13;50.39;102943.56;5094490;28;20520;-61
2022/04/28 07:01:49;;;;;;;17.17;7.30;;;;;;;13.22;49.83;102947.44;5094118;28;20059;-62
2022/04/28 07:04:14;;;;;;;20.17;7.75;;;;;;;13.24;49.24;102948.41;5094122;28;20103;-62
2022/04/28 07:06:40;;;;;;;18.70;7.75;;;;;;;13.31;49.20;102957.47;5094205;28;20346;-62
2022/04/28 07:09:05;;;;;;;13.18;6.97;;;;;;;13.55;49.17;102960.03;5094111;28;20059;-62
2022/04/28 07:11:30;;;;;;;17.25;7.47;;;;;;;13.83;48.82;102956.50;5094098;28;20124;-62
2022/04/28 07:13:56;;;;;;;14.18;6.82;;;;;;;14.00;47.74;102965.91;5094086;28;20477;-62
2022/04/28 07:16:21;;;;;;;16.85;7.40;;;;;;;14.08;46.70;102954.59;5093858;28;20103;-62
2022/04/28 07:18:46;;;;;;;12.52;6.40;;;;;;;14.24;47.07;102963.06;5093852;28;20034;-62
2022/04/28 07:21:12;;;;;;;18.15;6.97;;;;;;;14.35;45.98;102967.81;5093788;28;20039;-62
2022/04/28 07:23:37;;;;;;;19.67;7.25;;;;;;;14.42;45.79;102970.69;5093745;28;20020;-62
2022/04/28 07:26:03;;;;;;;19.70;7.65;;;;;;;14.46;45.94;102969.91;5094030;28;20021;-62
2022/04/28 07:28:28;;;;;;;15.55;7.10;;;;;;;14.50;45.65;102969.19;5093747;28;20038;-62
2022/04/28 07:30:54;;;;;;;16.25;7.00;;;;;;;14.69;45.39;102977.72;5093885;28;20024;-62
2022/04/28 07:33:19;;;;;;;15.07;6.93;;;;;;;14.86;45.06;102978.13;5093500;28;20351;-62
2022/04/28 07:35:44;;;;;;;20.55;6.43;;;;;;;15.11;44.96;102983.25;5093455;28;20107;-62
2022/04/28 07:38:10;;;;;;;17.10;7.00;;;;;;;15.37;44.48;102983.03;5093443;28;20031;-62
2022/04/28 07:40:36;;;;;;;14.65;6.95;;;;;;;15.55;43.19;102977.28;5093497;28;20020;-62
2022/04/28 07:43:02;;;;;;;17.33;6.55;;;;;;;15.68;42.41;102982.97;5093410;28;20048;-62
2022/04/28 07:45:28;;;;;;;14.65;6.30;;;;;;;15.71;43.12;102984.78;5093357;28;20056;-62
2022/04/28 07:47:54;;;;;;;16.70;6.10;;;;;;;15.90;42.39;102978.16;5092964;28;20439;-62
2022/04/28 07:50:20;;;;;;;14.05;6.10;;;;;;;16.04;41.75;102984.69;5093026;28;20027;-63
2022/04/28 07:52:46;;;;;;;16.10;6.55;;;;;;;16.18;41.58;102979.66;5093103;28;20123;-62
2022/04/28 07:55:12;;;;;;;13.55;6.88;;;;;;;16.42;41.20;102993.53;5093090;28;20097;-62
2022/04/28 07:57:37;;;;;;;16.15;6.50;;;;;;;16.68;40.15;102995.81;5093078;28;20020;-62
2022/04/28 08:00:05;;;;;;;18.63;6.57;;;;;;;16.77;39.86;102993.38;5093124;28;20028;-62
2022/04/28 08:02:32;;;;;;;19.67;6.82;;;;;;;16.73;40.16;102994.16;5093144;28;20051;-62
2022/04/28 08:04:57;;;;;;;16.77;6.13;;;;;;;16.69;39.63;102994.94;5092925;28;20457;-62
2022/04/28 08:07:23;;;;;;;12.68;6.35;;;;;;;16.84;39.87;103010.41;5093087;28;20024;-62
2022/04/28 08:09:48;;;;;;;16.15;6.38;;;;;;;16.95;39.06;103009.72;5092839;28;20028;-62
2022/04/28 08:12:14;;;;;;;18.13;6.70;;;;;;;17.16;39.35;103011.91;5092875;28;20107;-62
2022/04/28 08:14:39;;;;;;;13.38;5.70;;;;;;;17.32;37.94;103001.50;5092984;28;20106;-61
2022/04/28 08:17:05;;;;;;;17.33;6.47;;;;;;;17.35;38.06;103001.56;5092772;28;20104;-61
2022/04/28 08:19:32;;;;;;;15.57;6.50;;;;;;;17.28;38.52;102998.75;5093029;28;20488;-61
2022/04/28 08:21:58;;;;;;;17.25;6.45;;;;;;;17.48;38.11;103014.25;5092720;28;20035;-61
2022/04/28 08:24:23;;;;;;;14.60;6.90;;;;;;;17.53;37.55;103010.78;5092864;28;20028;-62
2022/04/28 08:26:49;;;;;;;16.52;6.47;;;;;;;17.75;38.06;103013.84;5092608;28;20024;-61
2022/04/28 08:29:15;;;;;;;15.88;6.00;;;;;;;18.18;37.29;103009.13;5092878;28;20039;-61
2022/04/28 08:31:44;;;;;;;17.83;6.55;;;;;;;18.47;37.42;103007.72;5092610;28;20032;-61
2022/04/28 08:34:14;;;;;;;16.30;6.80;;;;;;;18.53;36.93;103014.94;5092813;28;20142;-61
2022/04/28 08:36:40;;;;;;;15.90;6.35;;;;;;;18.53;36.37;103009.56;5092521;28;20046;-62
2022/04/28 08:39:07;;;;;;;15.98;6.10;;;;;;;18.64;36.63;103013.28;5092690;28;20030;-61
2022/04/28 08:41:34;;;;;;;16.00;6.38;;;;;;;18.87;35.09;103023.41;5092682;28;20028;-61
2022/04/28 08:44:03;;;;;;;13.68;6.25;;;;;;;18.99;34.78;103024.44;5074225;28;20028;-61
2022/04/28 08:49:13;;;;;;;14.98;6.72;;;;;;;19.36;34.69;103010.50;5092640;28;20157;-61
2022/04/28 08:51:40;;;;;;;13.60;6.57;;;;;;;19.43;35.79;103015.91;5092394;28;20059;-61
2022/04/28 08:54:05;;;;;;;19.77;6.95;;;;;;;19.55;34.70;103011.56;5092494;28;20098;-62
2022/04/28 08:56:31;;;;;;;16.02;6.85;;;;;;;19.83;33.31;103010.91;5092934;28;20457;-61
2022/04/28 08:58:57;;;;;;;14.55;6.43;;;;;;;19.89;33.30;103012.72;5093705;28;20020;-61
2022/04/28 09:01:24;;;;;;;15.77;6.90;;;;;;;19.95;33.01;103016.34;5096597;28;20028;-61
2022/04/28 09:03:49;;;;;;;18.13;7.35;;;;;;;20.05;32.93;103017.31;5096272;28;20024;-61
2022/04/28 09:06:30;;;;;;;14.00;6.65;;;;;;;20.32;33.96;103013.88;5096492;28;20024;-62
2022/04/28 09:08:58;;;;;;;15.38;6.82;;;;;;;20.20;33.73;103013.81;5096378;28;20035;-61
2022/04/28 09:11:26;;;;;;;15.10;6.32;;;;;;;20.35;32.60;103010.31;5096373;28;20103;-62
2022/04/28 09:14:25;;;;;;;13.70;6.82;;;;;;;20.50;32.46;103016.66;5096331;28;20107;-61
2022/04/28 09:16:52;;;;;;;15.65;6.20;;;;;;;20.61;31.64;103011.34;5096226;28;20473;-62
2022/04/28 09:19:26;;;;;;;13.65;6.75;;;;;;;20.45;32.10;103007.66;5096428;28;20115;-61
2022/04/28 09:21:54;;;;;;;16.90;6.53;;;;;;;20.49;32.13;103006.81;5096324;28;20073;-61
2022/04/28 09:24:20;;;;;;;15.95;6.60;;;;;;;20.83;31.58;103008.72;5096258;28;20392;-61
2022/04/28 09:26:48;;;;;;;16.45;6.60;;;;;;;21.01;31.10;103006.97;5096057;28;20664;-61
2022/04/28 09:29:15;;;;;;;17.45;6.40;;;;;;;21.21;31.05;103001.63;5096077;28;20024;-61
2022/04/28 09:31:43;;;;;;;11.95;6.40;;;;;;;21.07;31.04;102999.81;5095992;28;20477;-61
2022/04/28 09:34:11;;;;;;;15.65;6.43;;;;;;;21.05;31.80;103004.31;5096098;28;20475;-61
2022/04/28 09:36:38;;;;;;;13.50;6.43;;;;;;;21.24;31.88;102995.34;5095888;28;20082;-62
2022/04/28 09:39:05;;;;;;;13.27;6.05;;;;;;;21.49;29.74;102996.28;5096168;28;20027;-62
2022/04/28 09:44:16;;;;;;;12.27;5.72;;;;;;;21.73;30.25;102996.28;5096199;28;20080;-62
2022/04/28 09:46:46;;;;;;;13.20;5.70;;;;;;;21.71;30.73;102999.84;5095842;28;20030;-62
2022/04/28 09:49:13;;;;;;;16.38;5.68;;;;;;;21.93;29.55;102996.25;5095860;28;20028;-62
2022/04/28 09:51:41;;;;;;;11.95;5.40;;;;;;;22.08;28.32;102987.22;5095493;28;20040;-62
2022/04/28 09:54:10;;;;;;;13.02;5.60;;;;;;;22.17;29.69;102989.03;5095508;28;20537;-62
2022/04/28 09:56:37;;;;;;;13.35;5.57;;;;;;;22.28;28.64;102983.63;5095737;28;20020;-62
2022/04/28 09:59:05;;;;;;;13.38;5.32;;;;;;;22.31;27.97;102989.88;5095769;28;20043;-62
2022/04/28 10:01:34;;;;;;;18.13;5.50;;;;;;;22.59;27.68;102987.94;5096077;28;20031;-62
2022/04/28 10:04:00;;;;;;;12.82;5.07;;;;;;;22.63;27.32;102983.44;5096361;28;20421;-62
2022/04/28 10:06:27;;;;;;;12.55;5.70;;;;;;;22.85;27.83;102978.81;5097876;28;20059;-62
2022/04/28 10:08:53;;;;;;;11.70;5.22;;;;;;;22.79;26.75;102978.88;5078208;28;20035;-62
2022/04/28 10:11:22;;;;;;;10.52;5.47;;;;;;;22.90;26.66;102975.22;5095843;28;20024;-62
2022/04/28 10:13:50;;;;;;;12.75;5.80;;;;;;;22.84;26.73;102967.13;5095261;28;20047;-62
2022/04/28 10:16:19;;;;;;;16.15;5.90;;;;;;;22.97;27.41;102968.00;5095417;28;20125;-62
2022/04/28 10:18:57;;;;;;;14.98;5.57;;;;;;;23.27;26.97;102972.25;5095185;28;20024;-62
2022/04/28 10:21:28;;;;;;;14.85;5.82;;;;;;;23.40;27.75;102968.53;5076881;28;20035;-63
2022/04/28 10:32:53;;;;;;;12.05;5.90;;;;;;;23.82;25.72;102968.19;5095141;28;20074;-62
2022/04/28 10:35:33;;;;;;;11.57;5.50;;;;;;;23.79;26.57;102965.50;5094730;28;20035;-62
2022/04/28 10:38:24;;;;;;;13.32;5.70;;;;;;;23.95;25.91;102967.13;5094706;28;20077;-62
2022/04/28 10:41:06;;;;;;;13.05;5.65;;;;;;;24.08;25.09;102963.38;5094763;28;20032;-62
2022/04/28 10:43:39;;;;;;;;;;;;;;;24.19;25.19;102964.09;5095230;28;20102;-62
2022/04/28 10:46:08;;;;;;;15.15;5.63;;;;;;;24.01;25.18;102967.03;5094789;28;19919;-62
2022/04/28 10:48:44;;;;;;;14.80;5.88;;;;;;;24.05;25.15;102954.41;5095099;28;20405;-62
2022/04/28 10:51:17;;;;;;;16.02;5.78;;;;;;;23.93;25.06;102953.63;5094459;28;20054;-62
2022/04/28 10:54:01;;;;;;;13.50;6.10;;;;;;;24.07;25.21;102945.38;5074494;28;20127;-62
2022/04/28 10:56:39;;;;;;;12.77;6.10;;;;;;;23.98;24.99;102958.97;5074399;28;20024;-62
2022/04/28 10:59:37;;;;;;;14.00;6.40;;;;;;;24.04;25.43;102950.81;5074224;28;20376;-62
2022/04/28 11:02:13;;;;;;;14.60;6.55;;;;;;;23.76;25.47;102942.13;5074063;28;20496;-62
2022/04/28 11:04:40;;;;;;;12.90;6.47;;;;;;;23.85;26.00;102933.91;5073992;28;20021;-62
2022/04/28 11:07:12;;;;;;;13.68;7.22;;;;;;;24.14;25.98;102940.78;5074197;28;20043;-62
2022/04/28 11:09:40;;;;;;;12.57;6.65;;;;;;;24.27;26.34;102939.69;5073905;28;20103;-62
2022/04/28 11:12:17;;;;;;;15.05;6.95;;;;;;;24.68;25.23;102944.56;5073826;28;20025;-62
2022/04/28 11:15:00;;;;;;;15.82;6.82;;;;;;;25.04;24.67;102944.91;5073843;28;20107;-62
2022/04/28 11:17:28;;;;;;;;;;;;;;;25.31;23.99;102940.91;5074275;28;20033;-62
2022/04/28 11:19:54;;;;;;;12.52;6.28;;;;;;;24.82;24.47;102938.97;5073516;28;19914;-62
2022/04/28 11:22:20;;;;;;;13.52;6.65;;;;;;;25.06;23.91;102931.38;5073014;28;20033;-62
2022/04/28 11:24:47;;;;;;;14.50;6.47;;;;;;;25.20;23.59;102934.78;5073578;28;20359;-62
2022/04/28 11:27:19;;;;;;;13.13;5.72;;;;;;;25.30;24.12;102932.78;5073689;28;20525;-62
2022/04/28 11:29:46;;;;;;;15.77;6.88;;;;;;;25.44;23.29;102923.53;5073512;28;20035;-62
2022/04/28 11:32:14;;;;;;;13.98;7.00;;;;;;;25.26;24.17;102917.53;5073575;28;20024;-62
2022/04/28 11:34:40;;;;;;;13.50;6.72;;;;;;;25.05;25.12;102919.63;5073543;28;20021;-62
2022/04/28 11:37:16;;;;;;;16.55;7.10;;;;;;;25.23;25.02;102922.09;5073441;28;20025;-62
2022/04/28 11:39:49;;;;;;;14.60;7.10;;;;;;;25.21;25.68;102931.13;5073449;28;20300;-62
2022/04/28 11:42:18;;;;;;;15.88;6.88;;;;;;;25.36;25.47;102924.56;5073248;28;20112;-62
2022/04/28 11:44:55;;;;;;;10.98;6.53;;;;;;;25.38;24.64;102920.91;5073336;28;20082;-63
2022/04/28 11:47:23;;;;;;;16.95;7.38;;;;;;;25.01;23.97;102923.34;5073366;28;20115;-63
2022/04/28 11:49:56;;;;;;;14.98;6.78;;;;;;;25.35;24.67;102918.28;5073150;28;20020;-62
2022/04/28 11:52:27;;;;;;;16.63;6.90;;;;;;;25.26;24.84;102925.66;5072806;28;20048;-62
2022/04/28 11:55:08;;;;;;;14.18;6.88;;;;;;;25.23;24.12;102927.50;5073086;28;20024;-63